createdAt,value
2018-04-02T00:03:47.322Z,6.80
2018-04-02T00:08:41.677Z,6.80
2018-04-02T00:13:36.016Z,6.80
2018-04-02T00:18:31.146Z,6.80
2018-04-02T00:23:25.505Z,6.80
2018-04-02T00:28:19.887Z,6.80
2018-04-02T00:33:14.310Z,6.80
2018-04-02T00:38:08.591Z,6.80
2018-04-02T00:43:03.932Z,6.70
2018-04-02T00:47:59.312Z,6.70
2018-04-02T00:52:53.730Z,6.70
2018-04-02T00:57:48.148Z,6.70
2018-04-02T01:02:42.717Z,6.60
2018-04-02T01:07:37.287Z,6.60
2018-04-02T01:12:31.761Z,6.60
2018-04-02T01:17:26.134Z,6.60
2018-04-02T01:22:21.278Z,6.20
2018-04-02T01:27:15.654Z,6.20
2018-04-02T01:32:10.796Z,5.90
2018-04-02T01:37:05.226Z,5.90
2018-04-02T01:41:59.668Z,5.80
2018-04-02T01:46:54.853Z,5.60
2018-04-02T01:51:50.012Z,5.60
2018-04-02T01:56:44.398Z,5.60
2018-04-02T02:01:39.093Z,5.50
2018-04-02T02:06:33.276Z,5.50
2018-04-02T02:11:27.779Z,5.40
2018-04-02T02:16:22.482Z,5.30
2018-04-02T02:21:16.861Z,5.20
2018-04-02T02:26:11.110Z,5.10
2018-04-02T02:31:05.502Z,5.00
2018-04-02T02:35:59.870Z,4.90
2018-04-02T02:40:55.004Z,4.80
2018-04-02T02:45:49.403Z,4.80
2018-04-02T02:50:43.768Z,4.80
2018-04-02T02:55:38.950Z,4.80
2018-04-02T03:00:33.517Z,4.80
2018-04-02T03:05:28.680Z,4.70
2018-04-02T03:10:23.055Z,4.70
2018-04-02T03:15:17.440Z,4.70
2018-04-02T03:20:12.620Z,4.80
2018-04-02T03:25:06.980Z,4.80
2018-04-02T03:30:01.391Z,4.90
2018-04-02T03:34:55.939Z,4.90
2018-04-02T03:39:50.322Z,4.90
2018-04-02T03:44:44.690Z,4.90
2018-04-02T03:49:39.936Z,4.80
2018-04-02T03:54:34.269Z,4.70
2018-04-02T03:59:28.654Z,4.70
2018-04-02T04:04:23.014Z,4.60
2018-04-02T04:09:18.198Z,4.40
2018-04-02T04:14:12.562Z,4.40
2018-04-02T04:19:06.936Z,4.30
2018-04-02T04:24:02.199Z,4.10
2018-04-02T04:28:56.951Z,4.10
2018-04-02T04:33:51.342Z,4.10
2018-04-02T04:38:45.733Z,4.00
2018-04-02T04:43:40.126Z,4.00
2018-04-02T04:48:34.494Z,4.00
2018-04-02T04:53:29.648Z,4.00
2018-04-02T04:58:24.044Z,4.00
2018-04-02T05:03:18.454Z,4.10
2018-04-02T05:08:12.823Z,4.20
2018-04-02T05:13:07.835Z,4.50
2018-04-02T05:18:02.717Z,4.60
2018-04-02T05:22:57.073Z,4.60
2018-04-02T05:27:51.464Z,4.70
2018-04-02T05:32:45.846Z,4.80
2018-04-02T05:37:41.016Z,5.00
2018-04-02T05:42:35.422Z,5.00
2018-04-02T05:47:29.786Z,5.20
2018-04-02T05:52:24.938Z,5.40
2018-04-02T05:57:19.315Z,5.40
2018-04-02T06:02:14.453Z,5.60
2018-04-02T06:07:09.292Z,5.60
2018-04-02T06:12:04.720Z,5.70
2018-04-02T06:16:59.116Z,5.90
2018-04-02T06:21:53.486Z,6.10
2018-04-02T06:26:48.642Z,6.70
2018-04-02T06:31:43.001Z,6.60
2018-04-02T06:36:38.160Z,7.80
2018-04-02T06:41:32.521Z,7.80
2018-04-02T06:46:27.885Z,7.50
2018-04-02T06:51:22.333Z,7.50
2018-04-02T06:56:18.232Z,7.20
2018-04-02T07:01:12.529Z,7.20
2018-04-02T07:06:07.155Z,7.30
2018-04-02T07:11:01.557Z,7.40
2018-04-02T07:15:58.041Z,7.50
2018-04-02T07:20:52.446Z,7.80
2018-04-02T07:25:47.590Z,8.40
2018-04-02T07:30:41.983Z,8.30
2018-04-02T07:35:37.210Z,8.80
2018-04-02T07:40:32.356Z,8.80
2018-04-02T07:45:26.750Z,8.80
2018-04-02T07:50:21.174Z,9.10
2018-04-02T07:55:16.776Z,9.80
2018-04-02T08:00:11.118Z,9.80
2018-04-02T08:05:05.505Z,10.00
2018-04-02T08:09:59.985Z,10.50
2018-04-02T08:14:54.497Z,10.90
2018-04-02T08:19:48.805Z,11.20
2018-04-02T08:24:43.518Z,11.30
2018-04-02T08:29:37.944Z,11.30
2018-04-02T08:34:32.320Z,11.20
2018-04-02T08:39:26.703Z,11.40
2018-04-02T08:44:21.863Z,11.70
2018-04-02T08:49:16.448Z,11.70
2018-04-02T08:54:10.897Z,11.70
2018-04-02T08:59:06.125Z,12.10
2018-04-02T09:04:01.323Z,12.10
2018-04-02T09:08:55.750Z,12.10
2018-04-02T09:13:50.119Z,12.20
2018-04-02T09:18:44.508Z,12.80
2018-04-02T09:23:38.894Z,13.00
2018-04-02T09:28:33.280Z,13.80
2018-04-02T09:33:28.228Z,15.80
2018-04-02T09:38:22.792Z,15.70
2018-04-02T09:43:17.138Z,16.60
2018-04-02T09:48:11.521Z,16.20
2018-04-02T09:53:06.713Z,15.00
2018-04-02T09:58:01.260Z,15.00
2018-04-02T10:02:55.433Z,14.80
2018-04-02T10:07:50.570Z,15.70
2018-04-02T10:12:45.959Z,16.50
2018-04-02T10:17:41.226Z,16.50
2018-04-02T10:22:35.604Z,17.10
2018-04-02T10:27:30.768Z,16.40
2018-04-02T10:32:25.163Z,16.30
2018-04-02T10:37:19.614Z,16.20
2018-04-02T10:42:14.164Z,16.20
2018-04-02T10:47:08.538Z,16.80
2018-04-02T10:52:02.954Z,17.10
2018-04-02T10:56:57.586Z,17.30
2018-04-02T11:01:52.911Z,17.60
2018-04-02T11:06:47.279Z,17.30
2018-04-02T11:11:41.651Z,17.00
2018-04-02T11:16:35.853Z,16.40
2018-04-02T11:21:30.403Z,16.30
2018-04-02T11:26:25.491Z,15.80
2018-04-02T11:31:21.373Z,15.60
2018-04-02T11:36:15.757Z,15.60
2018-04-02T11:41:10.688Z,15.70
2018-04-02T11:46:05.229Z,15.70
2018-04-02T11:50:59.830Z,15.90
2018-04-02T11:55:54.201Z,15.90
2018-04-02T12:00:49.385Z,15.80
2018-04-02T12:05:43.782Z,15.70
2018-04-02T12:10:38.172Z,16.00
2018-04-02T12:15:32.573Z,15.80
2018-04-02T12:20:27.243Z,15.60
2018-04-02T12:25:21.599Z,15.40
2018-04-02T12:30:16.075Z,15.30
2018-04-02T12:35:10.472Z,15.60
2018-04-02T12:40:05.042Z,15.50
2018-04-02T12:45:00.317Z,15.20
2018-04-02T12:49:54.959Z,15.20
2018-04-02T12:54:50.118Z,15.00
2018-04-02T12:59:44.767Z,14.90
2018-04-02T13:04:39.305Z,15.10
2018-04-02T13:09:34.481Z,15.10
2018-04-02T13:14:28.956Z,15.10
2018-04-02T13:19:23.306Z,15.20
2018-04-02T13:24:17.663Z,15.50
2018-04-02T13:29:12.132Z,15.80
2018-04-02T13:34:07.960Z,16.10
2018-04-02T13:39:02.520Z,16.30
2018-04-02T13:43:57.264Z,16.50
2018-04-02T13:48:51.793Z,17.00
2018-04-02T13:53:46.459Z,17.40
2018-04-02T13:58:41.076Z,17.60
2018-04-02T14:03:35.500Z,17.70
2018-04-02T14:08:30.026Z,17.20
2018-04-02T14:13:24.410Z,16.60
2018-04-02T14:18:19.031Z,16.50
2018-04-02T14:23:13.437Z,16.50
2018-04-02T14:28:07.809Z,16.50
2018-04-02T14:33:02.206Z,16.60
2018-04-02T14:37:57.378Z,16.60
2018-04-02T14:42:55.955Z,16.20
2018-04-02T14:47:53.815Z,16.10
2018-04-02T14:52:50.079Z,16.00
2018-04-02T14:57:45.780Z,15.70
2018-04-02T15:02:40.777Z,15.70
2018-04-02T15:07:38.905Z,15.40
2018-04-02T15:12:35.424Z,15.10
2018-04-02T15:17:33.698Z,14.90
2018-04-02T15:22:31.148Z,14.70
2018-04-02T15:27:27.545Z,14.60
2018-04-02T15:32:23.405Z,14.50
2018-04-02T15:37:21.702Z,14.40
2018-04-02T15:42:17.374Z,14.40
2018-04-02T15:47:13.601Z,14.40
2018-04-02T15:52:11.721Z,14.40
2018-04-02T15:57:10.091Z,14.30
2018-04-02T16:02:06.140Z,14.20
2018-04-02T16:07:01.124Z,14.30
2018-04-02T16:12:00.683Z,14.30
2018-04-02T16:16:56.185Z,14.30
2018-04-02T16:21:50.787Z,14.40
2018-04-02T16:26:45.201Z,14.40
2018-04-02T16:31:39.605Z,14.40
2018-04-02T16:36:34.001Z,14.40
2018-04-02T16:41:28.386Z,14.40
2018-04-02T16:46:22.925Z,14.40
2018-04-02T16:51:17.358Z,14.40
2018-04-02T16:56:12.559Z,14.40
2018-04-02T17:01:07.049Z,14.40
2018-04-02T17:06:02.414Z,14.30
2018-04-02T17:10:56.901Z,14.30
2018-04-02T17:15:52.172Z,14.30
2018-04-02T17:20:46.567Z,14.30
2018-04-02T17:25:41.099Z,14.30
2018-04-02T17:30:35.460Z,14.30
2018-04-02T17:35:30.635Z,14.20
2018-04-02T17:40:25.146Z,14.10
2018-04-02T17:45:20.424Z,13.90
2018-04-02T17:50:14.788Z,13.90
2018-04-02T17:55:09.215Z,13.90
2018-04-02T18:00:03.715Z,13.80
2018-04-02T18:04:58.136Z,13.70
2018-04-02T18:09:52.509Z,13.60
2018-04-02T18:14:46.878Z,13.60
2018-04-02T18:19:41.357Z,13.50
2018-04-02T18:24:35.901Z,13.30
2018-04-02T18:29:30.466Z,13.20
2018-04-02T18:34:24.993Z,13.10
2018-04-02T18:39:19.606Z,13.00
2018-04-02T18:44:14.049Z,13.00
2018-04-02T18:49:08.927Z,12.90
2018-04-02T18:54:03.647Z,12.90
2018-04-02T18:58:58.215Z,12.80
2018-04-02T19:03:53.631Z,12.70
2018-04-02T19:08:49.032Z,12.60
2018-04-02T19:13:43.386Z,12.60
2018-04-02T19:18:37.900Z,12.60
2018-04-02T19:23:32.237Z,12.60
2018-04-02T19:28:26.608Z,12.60
2018-04-02T19:33:21.124Z,12.60
2018-04-02T19:38:15.623Z,12.60
2018-04-02T19:43:10.115Z,12.60
2018-04-02T19:48:04.498Z,12.60
2018-04-02T19:52:58.898Z,12.50
2018-04-02T19:57:54.348Z,12.30
2018-04-02T20:02:48.850Z,12.10
2018-04-02T20:07:43.626Z,11.90
2018-04-02T20:12:37.859Z,11.80
2018-04-02T20:17:32.232Z,11.70
2018-04-02T20:22:27.917Z,11.60
2018-04-02T20:27:22.839Z,11.60
2018-04-02T20:32:17.236Z,11.60
2018-04-02T20:37:11.715Z,11.60
2018-04-02T20:42:06.123Z,11.60
2018-04-02T20:47:00.470Z,11.60
2018-04-02T20:51:54.636Z,11.50
2018-04-02T20:56:49.464Z,11.50
2018-04-02T21:01:44.097Z,11.50
2018-04-02T21:06:38.482Z,11.50
2018-04-02T21:11:33.051Z,11.50
2018-04-02T21:16:28.176Z,11.50
2018-04-02T21:21:22.526Z,11.50
2018-04-02T21:26:17.521Z,11.50
2018-04-02T21:31:12.130Z,11.50
2018-04-02T21:36:06.517Z,11.40
2018-04-02T21:41:00.634Z,11.40
2018-04-02T21:45:55.003Z,11.40
2018-04-02T21:50:49.655Z,11.40
2018-04-02T21:55:44.220Z,11.40
2018-04-02T22:00:38.849Z,11.40
2018-04-02T22:05:33.382Z,11.40
2018-04-02T22:10:27.532Z,11.40
2018-04-02T22:15:22.232Z,11.40
2018-04-02T22:20:17.460Z,11.50
2018-04-02T22:25:12.481Z,11.50
2018-04-02T22:30:06.876Z,11.50
2018-04-02T22:35:02.005Z,11.50
2018-04-02T22:39:56.136Z,11.50
2018-04-02T22:44:50.263Z,11.60
2018-04-02T22:49:44.678Z,11.60
2018-04-02T22:54:39.033Z,11.60
2018-04-02T22:59:33.718Z,11.50
2018-04-02T23:04:28.082Z,11.50
2018-04-02T23:09:22.453Z,11.50
2018-04-02T23:14:17.023Z,11.50
2018-04-02T23:19:12.163Z,11.50
2018-04-02T23:24:06.646Z,11.50
2018-04-02T23:29:02.620Z,11.60
2018-04-02T23:33:57.355Z,11.50
2018-04-02T23:38:51.842Z,11.60
2018-04-02T23:43:46.488Z,11.60
2018-04-02T23:48:41.682Z,11.60
2018-04-02T23:53:36.722Z,11.60
2018-04-02T23:58:31.101Z,11.60
